Time;durP1;ratioP1;P1;durP2;ratioP2;P2;SDS_P1;SDS_P2;PMS_P1;PMS_P2;Temp;Humidity;BMP_temperature;BMP_pressure;BME280_temperature;BME280_humidity;BME280_pressure;Samples;Min_cycle;Max_cycle;Signal;HPM_P1;HPM_P2
2024/03/03 00:01:49;;;;;;;20.33;11.90;;;6.20;99.90;6.00;99532.00;;;;4909554;28;99418;-63
2024/03/03 00:04:15;;;;;;;23.67;13.37;;;6.20;99.90;6.00;99541.00;;;;4906752;28;121878;-63
2024/03/03 00:06:41;;;;;;;19.57;12.17;;;6.20;99.90;6.00;99518.00;;;;4905937;28;114598;-65
2024/03/03 00:09:06;;;;;;;22.03;14.17;;;6.10;99.90;6.00;99526.00;;;;4908369;28;106647;-64
2024/03/03 00:11:34;;;;;;;19.33;12.00;;;6.20;99.90;6.00;99525.00;;;;4906339;28;123313;-64
2024/03/03 00:14:00;;;;;;;20.77;12.20;;;6.20;99.90;6.00;99525.00;;;;4910695;28;93181;-64
2024/03/03 00:16:31;;;;;;;22.53;13.93;;;6.90;99.90;6.00;99513.00;;;;4907562;28;92998;-63
2024/03/03 00:18:58;;;;;;;21.77;13.07;;;6.30;99.90;6.00;99510.00;;;;4908252;28;93093;-64
2024/03/03 00:21:23;;;;;;;24.90;12.93;;;6.10;99.90;6.10;99518.00;;;;4906552;28;93848;-64
2024/03/03 00:23:49;;;;;;;25.10;13.17;;;6.80;99.90;6.00;99502.00;;;;4910341;28;118167;-64
2024/03/03 00:26:15;;;;;;;21.07;12.53;;;6.90;99.90;6.00;99507.00;;;;4906479;28;113021;-64
2024/03/03 00:28:40;;;;;;;24.63;13.93;;;6.20;99.90;6.10;99506.00;;;;4904676;28;103300;-64
2024/03/03 00:31:06;;;;;;;21.13;15.10;;;6.90;99.90;6.10;99502.00;;;;4904834;28;126007;-64
2024/03/03 00:33:32;;;;;;;26.87;15.00;;;6.30;99.90;6.10;99510.00;;;;4906475;28;122597;-65
2024/03/03 00:35:57;;;;;;;19.97;14.23;;;5.80;99.90;6.10;99513.00;;;;4905298;28;112141;-64
2024/03/03 00:38:23;;;;;;;25.93;15.40;;;6.90;99.90;6.10;99508.00;;;;4909305;28;109090;-64
2024/03/03 00:40:48;;;;;;;20.90;15.10;;;6.20;99.90;6.10;99508.00;;;;4908313;28;94184;-64
2024/03/03 00:43:14;;;;;;;22.80;15.17;;;6.20;99.90;6.10;99511.00;;;;4903868;28;122986;-64
2024/03/03 00:45:40;;;;;;;29.23;17.63;;;7.00;99.90;6.10;99513.00;;;;4908677;28;111805;-66
2024/03/03 00:48:06;;;;;;;24.07;15.47;;;6.30;99.90;6.10;99507.00;;;;4907687;28;95143;-64
2024/03/03 00:50:31;;;;;;;17.27;13.57;;;6.30;99.90;6.00;99507.00;;;;4902759;28;107591;-64
2024/03/03 00:52:57;;;;;;;18.60;13.17;;;6.20;99.90;6.10;99511.00;;;;4905464;28;122639;-65
2024/03/03 00:55:26;;;;;;;25.83;13.50;;;6.20;99.90;6.10;99499.00;;;;4906299;28;101369;-64
2024/03/03 00:57:52;;;;;;;20.20;13.03;;;6.20;99.90;6.10;99503.00;;;;4907166;28;98645;-65
2024/03/03 01:00:18;;;;;;;18.17;13.23;;;6.30;99.90;6.10;99501.00;;;;4909616;28;121882;-64
2024/03/03 01:02:44;;;;;;;20.83;13.50;;;6.30;99.90;6.10;99501.00;;;;4909053;28;116381;-64
2024/03/03 01:05:11;;;;;;;24.23;13.97;;;6.20;99.90;6.10;99500.00;;;;4907683;28;114110;-63
2024/03/03 01:07:38;;;;;;;21.90;13.70;;;6.50;99.90;6.10;99504.00;;;;4908720;28;92994;-63
2024/03/03 01:10:06;;;;;;;21.40;13.90;;;6.30;99.90;6.10;99503.00;;;;4906844;28;105838;-64
2024/03/03 01:12:32;;;;;;;25.37;13.50;;;6.20;99.90;6.10;99493.00;;;;4908316;28;105340;-63
2024/03/03 01:14:58;;;;;;;22.03;13.67;;;6.20;99.90;6.00;99494.00;;;;4907338;28;98318;-64
2024/03/03 01:17:23;;;;;;;24.60;13.57;;;6.60;99.90;6.00;99500.00;;;;4907690;28;109216;-64
2024/03/03 01:19:49;;;;;;;22.67;14.17;;;6.30;99.90;6.00;99491.00;;;;4905515;28;121619;-64
2024/03/03 01:22:15;;;;;;;21.47;13.80;;;6.20;99.90;6.00;99484.00;;;;4906200;28;122551;-64
2024/03/03 01:24:41;;;;;;;21.97;14.20;;;6.10;99.90;6.00;99486.00;;;;4912844;28;113320;-65
2024/03/03 01:27:07;;;;;;;26.77;15.23;;;6.70;99.90;6.00;99497.00;;;;4907829;28;93265;-64
2024/03/03 01:29:32;;;;;;;28.87;15.90;;;6.80;99.90;6.00;99489.00;;;;4901727;28;122579;-64
2024/03/03 01:31:58;;;;;;;24.00;14.97;;;6.20;99.90;6.00;99491.00;;;;4907157;28;123313;-63
2024/03/03 01:34:25;;;;;;;20.13;13.47;;;6.90;99.90;6.00;99496.00;;;;4907041;28;105223;-64
2024/03/03 01:36:52;;;;;;;22.17;13.10;;;6.40;99.90;6.00;99491.00;;;;4908159;28;93238;-63
2024/03/03 01:39:18;;;;;;;21.07;14.77;;;7.00;99.90;6.00;99500.00;;;;4904430;28;93576;-64
2024/03/03 01:41:45;;;;;;;24.30;14.80;;;6.20;99.90;6.00;99495.00;;;;4917089;28;92835;-63
2024/03/03 01:44:11;;;;;;;16.73;11.00;;;6.20;99.90;6.10;99491.00;;;;4905573;28;93082;-62
2024/03/03 01:46:38;;;;;;;20.80;12.33;;;6.80;99.90;6.10;99486.00;;;;4901465;28;94328;-63
2024/03/03 01:49:10;;;;;;;18.47;13.13;;;6.70;99.90;6.20;99490.00;;;;4921508;28;93203;-63
2024/03/03 01:51:38;;;;;;;21.47;14.20;;;6.30;99.90;6.30;99471.00;;;;4910170;28;114175;-63
2024/03/03 01:54:05;;;;;;;20.47;13.97;;;6.30;99.90;6.40;99469.00;;;;4907044;28;105122;-63
2024/03/03 01:56:33;;;;;;;16.80;11.97;;;6.50;99.90;6.50;99473.00;;;;4904467;28;100041;-64
2024/03/03 01:59:00;;;;;;;16.67;12.73;;;6.50;99.90;6.50;99474.00;;;;4909680;28;93760;-64
2024/03/03 02:01:29;;;;;;;19.73;13.60;;;6.70;99.90;6.60;99475.00;;;;4911256;28;123032;-64
2024/03/03 02:03:56;;;;;;;20.60;12.60;;;6.70;99.90;6.70;99470.00;;;;4916319;28;108087;-64
2024/03/03 02:06:29;;;;;;;19.83;13.03;;;6.80;99.90;6.80;99454.00;;;;4916602;28;93125;-64
2024/03/03 02:08:56;;;;;;;18.10;12.47;;;6.90;99.90;6.80;99462.00;;;;4913253;28;94051;-64
2024/03/03 02:11:21;;;;;;;20.90;13.47;;;7.00;99.90;6.90;99463.00;;;;4913475;28;94002;-64
2024/03/03 02:13:47;;;;;;;20.30;14.00;;;7.00;99.90;7.00;99457.00;;;;4908176;28;92828;-64
2024/03/03 02:16:13;;;;;;;20.63;13.37;;;7.10;99.90;7.00;99451.00;;;;4909946;28;106524;-64
2024/03/03 02:18:38;;;;;;;20.30;13.83;;;7.10;99.90;7.00;99448.00;;;;4906986;28;122076;-64
2024/03/03 02:21:04;;;;;;;18.90;11.23;;;7.20;99.90;7.00;99438.00;;;;4907841;28;104801;-63
2024/03/03 02:23:30;;;;;;;21.50;13.27;;;7.10;99.90;7.00;99438.00;;;;4907856;28;112984;-65
2024/03/03 02:25:55;;;;;;;23.57;13.10;;;7.80;99.90;7.00;99448.00;;;;4911260;28;107490;-64
2024/03/03 02:28:23;;;;;;;20.07;12.20;;;7.70;99.90;7.10;99431.00;;;;4905514;28;122345;-64
2024/03/03 02:30:49;;;;;;;16.33;12.80;;;7.80;99.90;7.20;99440.00;;;;4911259;28;93210;-64
2024/03/03 02:33:15;;;;;;;19.10;12.40;;;7.30;99.90;7.30;99432.00;;;;4906828;28;92876;-64
2024/03/03 02:35:41;;;;;;;25.50;12.90;;;7.40;99.90;7.30;99428.00;;;;4907923;28;108807;-64
2024/03/03 02:38:06;;;;;;;16.47;12.40;;;7.40;99.90;7.40;99438.00;;;;4911529;28;122551;-64
2024/03/03 02:40:32;;;;;;;19.27;12.47;;;7.50;99.90;7.50;99426.00;;;;4909268;28;122997;-64
2024/03/03 02:43:00;;;;;;;19.23;11.80;;;7.50;99.90;7.50;99430.00;;;;4907995;28;114232;-63
2024/03/03 02:45:26;;;;;;;19.97;11.73;;;7.60;99.90;7.60;99435.00;;;;4908710;28;96012;-63
2024/03/03 02:47:53;;;;;;;17.47;11.67;;;7.70;99.90;7.70;99434.00;;;;4913215;28;93974;-63
2024/03/03 02:50:20;;;;;;;16.70;11.27;;;7.80;99.90;7.80;99445.00;;;;4909939;28;93017;-63
2024/03/03 02:52:46;;;;;;;17.10;11.03;;;8.00;99.90;7.90;99434.00;;;;4915118;28;92212;-64
2024/03/03 02:55:12;;;;;;;15.17;9.83;;;8.00;99.90;8.00;99438.00;;;;4909503;28;99997;-65
2024/03/03 02:57:37;;;;;;;22.77;10.37;;;8.60;99.90;8.00;99429.00;;;;4911778;28;93337;-64
2024/03/03 03:00:04;;;;;;;14.20;9.57;;;8.10;99.90;8.00;99426.00;;;;4908495;28;120406;-64
2024/03/03 03:02:30;;;;;;;13.87;10.07;;;8.10;99.90;8.00;99430.00;;;;4912425;28;92818;-64
2024/03/03 03:04:57;;;;;;;17.57;9.90;;;8.50;99.90;8.00;99431.00;;;;4915492;28;93398;-63
2024/03/03 03:07:23;;;;;;;19.23;10.60;;;8.10;99.90;8.00;99419.00;;;;4907254;28;93955;-63
2024/03/03 03:09:49;;;;;;;13.40;9.63;;;8.10;99.90;7.90;99423.00;;;;4908095;28;115108;-63
2024/03/03 03:12:15;;;;;;;10.17;8.20;;;8.10;99.90;7.90;99417.00;;;;4908843;28;93031;-63
2024/03/03 03:14:40;;;;;;;15.30;8.63;;;8.10;99.90;7.90;99417.00;;;;4913534;28;95694;-64
2024/03/03 03:17:06;;;;;;;15.03;9.10;;;8.10;99.90;7.90;99414.00;;;;4907821;28;120150;-63
2024/03/03 03:19:32;;;;;;;12.03;8.53;;;8.00;99.90;7.90;99417.00;;;;4909945;28;121111;-63
2024/03/03 03:22:01;;;;;;;13.53;9.67;;;8.10;99.90;7.90;99415.00;;;;4916125;28;92904;-63
2024/03/03 03:24:26;;;;;;;12.07;7.83;;;8.10;99.90;7.90;99407.00;;;;4917343;28;95056;-63
2024/03/03 03:26:53;;;;;;;13.90;8.70;;;8.00;99.90;8.00;99403.00;;;;4910413;28;123612;-64
2024/03/03 03:29:18;;;;;;;11.13;7.73;;;8.10;99.90;8.00;99412.00;;;;4910224;28;122541;-65
2024/03/03 03:31:45;;;;;;;12.10;6.93;;;8.10;99.90;8.00;99392.00;;;;4908222;28;110437;-64
2024/03/03 03:34:11;;;;;;;10.97;7.57;;;8.10;99.90;8.00;99391.00;;;;4908535;28;107488;-64
2024/03/03 03:36:37;;;;;;;9.73;6.27;;;8.10;99.90;8.00;99394.00;;;;4911544;28;106463;-64
2024/03/03 03:39:10;;;;;;;9.17;6.63;;;8.10;99.90;8.00;99395.00;;;;4913100;28;93783;-65
2024/03/03 03:41:46;;;;;;;9.93;6.47;;;8.10;99.90;8.00;99397.00;;;;4913178;28;92161;-65
2024/03/03 03:44:13;;;;;;;8.40;6.37;;;8.20;99.90;8.00;99393.00;;;;4924670;28;93321;-63
2024/03/03 03:46:38;;;;;;;8.77;6.07;;;8.10;99.90;8.00;99396.00;;;;4904204;28;94405;-64
2024/03/03 03:49:09;;;;;;;10.90;5.63;;;8.20;99.90;8.00;99386.00;;;;4906107;28;101145;-65
2024/03/03 03:51:35;;;;;;;7.73;5.20;;;8.10;99.90;8.00;99389.00;;;;4910115;28;92807;-65
2024/03/03 03:54:03;;;;;;;10.27;6.20;;;8.10;99.90;8.00;99404.00;;;;4909697;28;93171;-65
2024/03/03 03:56:28;;;;;;;9.13;5.67;;;8.10;99.90;8.00;99388.00;;;;4907877;28;93804;-64
2024/03/03 03:58:54;;;;;;;11.53;6.53;;;8.10;99.90;7.90;99386.00;;;;4910133;28;122532;-63
2024/03/03 04:01:20;;;;;;;14.37;6.37;;;8.10;99.90;7.90;99388.00;;;;4909556;28;110509;-64
2024/03/03 04:03:47;;;;;;;6.90;5.23;;;8.10;99.90;7.90;99390.00;;;;4912796;28;93991;-65
2024/03/03 04:06:13;;;;;;;7.70;5.43;;;8.00;99.90;7.80;99395.00;;;;4912827;28;107399;-65
2024/03/03 04:08:40;;;;;;;7.60;4.87;;;7.90;99.90;7.80;99386.00;;;;4910559;28;121546;-64
2024/03/03 04:11:07;;;;;;;12.80;6.10;;;8.00;99.90;7.70;99385.00;;;;4908105;28;100756;-64
2024/03/03 04:13:33;;;;;;;12.47;6.43;;;7.90;99.90;7.70;99383.00;;;;4910494;28;94522;-65
2024/03/03 04:15:59;;;;;;;10.37;6.37;;;7.90;99.90;7.60;99390.00;;;;4908644;28;102795;-64
2024/03/03 04:18:24;;;;;;;10.73;6.47;;;7.80;99.90;7.60;99395.00;;;;4907097;28;104770;-64
2024/03/03 04:20:50;;;;;;;8.13;6.13;;;7.70;99.90;7.50;99375.00;;;;4908662;28;92873;-64
2024/03/03 04:23:17;;;;;;;6.03;4.77;;;7.80;99.90;7.50;99378.00;;;;4912605;28;108334;-64
2024/03/03 04:25:43;;;;;;;9.27;6.27;;;7.60;99.90;7.40;99385.00;;;;4909037;28;93877;-65
2024/03/03 04:28:12;;;;;;;8.13;5.57;;;7.90;99.90;7.40;99385.00;;;;4906994;28;110065;-63
2024/03/03 04:30:38;;;;;;;9.70;6.53;;;7.60;99.90;7.30;99388.00;;;;4911251;28;92084;-64
2024/03/03 04:33:03;;;;;;;9.10;5.57;;;7.50;99.90;7.20;99382.00;;;;4909469;28;99257;-64
2024/03/03 04:35:29;;;;;;;9.50;6.47;;;7.40;99.90;7.10;99380.00;;;;4914345;28;104854;-64
2024/03/03 04:37:55;;;;;;;9.07;6.03;;;7.80;99.90;7.00;99364.00;;;;4909432;28;118699;-64
2024/03/03 04:40:21;;;;;;;6.27;5.20;;;7.30;99.90;6.90;99363.00;;;;4910566;28;92892;-64
2024/03/03 04:42:46;;;;;;;7.33;5.83;;;7.10;99.90;6.80;99361.00;;;;4909891;28;92934;-64
2024/03/03 04:45:12;;;;;;;6.93;5.03;;;7.00;99.90;6.80;99359.00;;;;4911008;28;122492;-64
2024/03/03 04:47:41;;;;;;;7.60;5.77;;;7.00;99.90;6.70;99353.00;;;;4911642;28;93050;-64
2024/03/03 04:50:07;;;;;;;9.10;6.40;;;7.20;99.90;6.70;99368.00;;;;4908645;28;92824;-64
2024/03/03 04:52:34;;;;;;;9.20;6.37;;;6.90;99.90;6.60;99363.00;;;;4905509;28;96058;-64
2024/03/03 04:55:00;;;;;;;6.90;5.20;;;6.80;99.90;6.60;99366.00;;;;4906931;28;113089;-64
2024/03/03 04:57:26;;;;;;;8.07;6.70;;;7.20;99.90;6.50;99359.00;;;;4909432;28;124652;-64
2024/03/03 04:59:52;;;;;;;5.90;5.07;;;7.40;99.90;6.40;99359.00;;;;4907985;28;92939;-64
2024/03/03 05:02:18;;;;;;;8.80;5.53;;;7.50;99.90;6.30;99368.00;;;;4905486;28;99675;-64
2024/03/03 05:04:44;;;;;;;5.60;5.00;;;6.60;99.90;6.20;99369.00;;;;4908057;28;114553;-64
2024/03/03 05:07:10;;;;;;;9.43;6.53;;;7.10;99.90;6.10;99364.00;;;;4909117;28;97823;-64
2024/03/03 05:09:38;;;;;;;11.77;6.07;;;6.60;99.90;6.10;99363.00;;;;4909432;28;111607;-64
2024/03/03 05:12:06;;;;;;;8.10;5.03;;;6.30;99.90;6.00;99373.00;;;;4907303;28;92834;-64
2024/03/03 05:14:32;;;;;;;7.13;5.43;;;6.30;99.90;5.90;99374.00;;;;4901149;28;94176;-65
2024/03/03 05:16:58;;;;;;;9.10;6.13;;;6.00;99.90;5.80;99367.00;;;;4906324;28;122555;-60
2024/03/03 05:19:24;;;;;;;12.47;6.47;;;6.00;99.90;5.70;99367.00;;;;4904317;28;110882;-64
2024/03/03 05:21:49;;;;;;;8.43;5.80;;;6.40;99.90;5.70;99364.00;;;;4911005;28;93035;-63
2024/03/03 05:24:16;;;;;;;9.20;6.80;;;6.80;99.90;5.60;99366.00;;;;4904714;28;93585;-64
2024/03/03 05:26:43;;;;;;;9.50;7.03;;;5.80;99.90;5.60;99373.00;;;;4904557;28;114208;-64
2024/03/03 05:29:09;;;;;;;8.80;6.27;;;6.20;99.90;5.50;99370.00;;;;4905360;28;92918;-63
2024/03/03 05:31:44;;;;;;;7.70;6.37;;;5.70;99.90;5.40;99368.00;;;;4909744;28;96489;-64
2024/03/03 05:34:15;;;;;;;8.60;6.10;;;5.60;99.90;5.30;99376.00;;;;4906618;28;120148;-64
2024/03/03 05:36:44;;;;;;;8.27;5.30;;;5.40;99.90;5.20;99369.00;;;;4909922;28;93141;-64
2024/03/03 05:39:10;;;;;;;6.03;5.37;;;5.50;99.90;5.20;99367.00;;;;4905376;28;92908;-64
2024/03/03 05:41:37;;;;;;;10.73;4.93;;;5.40;99.90;5.10;99379.00;;;;4908999;28;92869;-64
2024/03/03 05:44:04;;;;;;;9.00;5.63;;;5.30;99.90;5.10;99385.00;;;;4906585;28;93457;-63
2024/03/03 05:46:30;;;;;;;8.70;6.07;;;5.40;99.90;5.10;99386.00;;;;4910020;28;92721;-63
2024/03/03 05:48:56;;;;;;;9.50;5.73;;;5.30;99.90;5.10;99388.00;;;;4910856;28;92909;-63
2024/03/03 05:51:22;;;;;;;10.77;6.03;;;5.30;99.90;5.10;99388.00;;;;4908644;28;108593;-65
2024/03/03 05:53:48;;;;;;;10.03;6.23;;;5.30;99.90;5.00;99387.00;;;;4903289;28;115771;-64
2024/03/03 05:56:17;;;;;;;11.17;6.50;;;5.20;99.90;5.00;99395.00;;;;4909181;28;124003;-64
2024/03/03 05:58:44;;;;;;;10.73;6.33;;;5.20;99.90;4.90;99401.00;;;;4905792;28;92820;-65
2024/03/03 06:01:10;;;;;;;17.57;12.97;;;5.70;99.90;4.90;99397.00;;;;4907480;28;95068;-64
2024/03/03 06:03:37;;;;;;;9.43;8.07;;;5.10;99.90;4.80;99397.00;;;;4909375;28;97243;-64
2024/03/03 06:06:04;;;;;;;10.77;8.07;;;5.10;99.90;4.90;99394.00;;;;4909433;28;113797;-63
2024/03/03 06:08:31;;;;;;;9.67;7.07;;;5.10;99.90;4.90;99391.00;;;;4910852;28;92768;-63
2024/03/03 06:10:57;;;;;;;9.03;5.93;;;5.80;99.90;4.90;99396.00;;;;4907319;28;101020;-64
2024/03/03 06:13:22;;;;;;;8.47;6.03;;;5.00;99.90;4.90;99397.00;;;;4908448;28;114781;-62
2024/03/03 06:15:48;;;;;;;10.37;7.17;;;5.20;99.90;5.10;99398.00;;;;4875766;28;108625;-64
2024/03/03 06:18:14;;;;;;;10.13;6.50;;;5.10;99.90;5.20;99390.00;;;;4917999;28;92788;-65
2024/03/03 06:20:40;;;;;;;8.33;6.07;;;5.30;99.90;5.40;99397.00;;;;4906393;28;108807;-64
2024/03/03 06:23:06;;;;;;;10.13;6.33;;;5.50;99.90;5.60;99407.00;;;;4906937;28;123711;-65
2024/03/03 06:25:32;;;;;;;9.47;5.77;;;5.70;99.90;5.70;99400.00;;;;4906210;28;120403;-64
2024/03/03 06:27:58;;;;;;;12.73;6.23;;;5.70;99.90;5.90;99405.00;;;;4904901;28;93078;-64
2024/03/03 06:30:23;;;;;;;8.23;6.33;;;6.10;99.90;6.10;99408.00;;;;4909431;28;93393;-63
2024/03/03 06:32:50;;;;;;;7.90;6.30;;;6.40;99.90;6.20;99396.00;;;;4903291;28;123506;-63
2024/03/03 06:35:16;;;;;;;8.53;5.60;;;6.30;99.90;6.40;99408.00;;;;4900550;28;93136;-64
2024/03/03 06:37:43;;;;;;;7.50;5.93;;;6.50;99.90;6.60;99400.00;;;;4902317;28;92925;-63
2024/03/03 06:40:09;;;;;;;8.87;6.27;;;7.20;99.90;6.80;99405.00;;;;4903041;28;93743;-64
2024/03/03 06:42:41;;;;;;;7.70;5.63;;;7.20;99.90;6.90;99410.00;;;;4910972;28;93442;-64
2024/03/03 06:45:08;;;;;;;10.50;6.03;;;6.60;99.90;7.20;99398.00;;;;4907200;28;115213;-63
2024/03/03 06:47:34;;;;;;;8.37;5.80;;;7.20;99.90;7.30;99403.00;;;;4905100;28;92899;-62
2024/03/03 06:50:02;;;;;;;10.87;6.37;;;7.60;99.90;7.60;99401.00;;;;4908567;28;102749;-64
2024/03/03 06:52:30;;;;;;;10.60;7.27;;;7.60;99.90;7.80;99401.00;;;;4908070;28;101591;-64
2024/03/03 06:54:57;;;;;;;8.93;6.37;;;7.90;99.90;8.00;99409.00;;;;4906372;28;93436;-65
2024/03/03 06:57:23;;;;;;;9.30;5.97;;;8.00;99.90;8.20;99416.00;;;;4909081;28;99340;-65
2024/03/03 06:59:49;;;;;;;11.97;6.13;;;8.20;99.90;8.40;99412.00;;;;4907267;28;93245;-65
2024/03/03 07:02:15;;;;;;;8.80;5.03;;;8.40;99.90;8.60;99414.00;;;;4906437;28;93959;-64
2024/03/03 07:04:41;;;;;;;6.37;4.73;;;8.60;99.90;8.80;99418.00;;;;4904562;28;94329;-65
2024/03/03 07:07:07;;;;;;;9.10;5.80;;;8.80;99.90;9.00;99413.00;;;;4906645;28;92822;-65
2024/03/03 07:09:33;;;;;;;11.73;6.27;;;9.00;99.90;9.20;99409.00;;;;4907892;28;94169;-64
2024/03/03 07:12:01;;;;;;;7.30;5.40;;;9.20;99.90;9.30;99416.00;;;;4907199;28;93040;-62
2024/03/03 07:14:27;;;;;;;5.90;5.30;;;9.40;99.90;9.50;99418.00;;;;4905080;28;93945;-63
2024/03/03 07:16:53;;;;;;;10.60;5.57;;;9.50;99.90;9.60;99418.00;;;;4905822;28;93097;-63
2024/03/03 07:19:19;;;;;;;7.63;4.90;;;9.60;99.90;9.60;99415.00;;;;4903881;28;92676;-63
2024/03/03 07:21:44;;;;;;;11.07;5.97;;;9.70;99.90;9.60;99418.00;;;;4909755;28;93104;-65
2024/03/03 07:24:10;;;;;;;6.60;4.33;;;9.70;99.90;9.50;99414.00;;;;4907998;28;115151;-65
2024/03/03 07:26:37;;;;;;;8.03;5.60;;;9.60;99.90;9.50;99414.00;;;;4906215;28;109766;-65
2024/03/03 07:29:03;;;;;;;11.47;5.90;;;9.60;99.90;9.40;99423.00;;;;4906071;28;94023;-64
2024/03/03 07:31:32;;;;;;;11.53;5.87;;;10.10;99.90;9.30;99418.00;;;;4903327;28;92924;-63
2024/03/03 07:33:57;;;;;;;11.00;5.27;;;9.50;99.90;9.30;99422.00;;;;4905325;28;120750;-63
2024/03/03 07:36:23;;;;;;;9.93;5.37;;;9.40;99.90;9.30;99426.00;;;;4906035;28;92997;-65
2024/03/03 07:38:49;;;;;;;8.83;5.03;;;9.40;99.90;9.30;99428.00;;;;4905509;28;108666;-64
2024/03/03 07:41:15;;;;;;;7.43;5.13;;;9.40;99.90;9.30;99416.00;;;;4902524;28;126247;-63
2024/03/03 07:43:40;;;;;;;11.13;5.73;;;9.40;99.90;9.40;99423.00;;;;4907293;28;122523;-63
2024/03/03 07:46:06;;;;;;;8.77;5.77;;;9.40;99.90;9.40;99426.00;;;;4902035;28;110050;-65
2024/03/03 07:48:32;;;;;;;7.67;5.30;;;9.50;99.90;9.40;99422.00;;;;4906703;28;108537;-64
2024/03/03 07:51:02;;;;;;;11.43;5.80;;;9.50;99.90;9.50;99420.00;;;;4906757;28;115563;-63
2024/03/03 07:53:28;;;;;;;10.13;6.07;;;9.50;99.90;9.50;99413.00;;;;4857211;28;94374;-64
2024/03/03 07:55:53;;;;;;;9.37;5.40;;;9.60;99.90;9.60;99419.00;;;;4891470;28;100718;-65
2024/03/03 07:58:19;;;;;;;12.07;6.87;;;9.60;99.90;9.60;99425.00;;;;4902884;28;108837;-65
2024/03/03 08:00:45;;;;;;;9.43;6.43;;;9.60;99.90;9.60;99422.00;;;;4904174;28;93502;-64
2024/03/03 08:03:11;;;;;;;11.13;5.67;;;9.60;99.90;9.70;99416.00;;;;4900657;28;93646;-63
2024/03/03 08:05:37;;;;;;;13.43;6.77;;;9.70;99.90;9.70;99423.00;;;;4902844;28;110845;-64
2024/03/03 08:08:05;;;;;;;9.23;6.53;;;9.70;99.90;9.70;99413.00;;;;4901633;28;100968;-63
2024/03/03 08:10:32;;;;;;;13.23;7.43;;;9.70;99.90;9.70;99418.00;;;;4890169;28;93329;-64
2024/03/03 08:12:58;;;;;;;12.80;7.57;;;9.70;99.90;9.80;99412.00;;;;4899836;28;93083;-64
2024/03/03 08:15:24;;;;;;;11.80;7.07;;;9.80;99.90;9.80;99415.00;;;;4902635;28;98850;-63
2024/03/03 08:17:49;;;;;;;13.20;7.27;;;9.90;99.90;9.90;99416.00;;;;4896870;28;94089;-64
2024/03/03 08:20:15;;;;;;;9.97;6.80;;;9.90;99.90;9.90;99422.00;;;;4916863;28;103036;-64
2024/03/03 08:22:42;;;;;;;11.47;7.03;;;10.00;99.90;10.00;99411.00;;;;4922851;28;93297;-64
2024/03/03 08:25:10;;;;;;;8.27;6.03;;;10.00;99.90;10.00;99411.00;;;;4920755;28;92881;-62
2024/03/03 08:27:36;;;;;;;9.53;6.27;;;10.10;99.90;10.00;99423.00;;;;4924096;28;96242;-66
2024/03/03 08:30:05;;;;;;;9.53;6.73;;;10.00;99.90;10.10;99417.00;;;;4921813;28;124473;-65
2024/03/03 08:32:32;;;;;;;14.00;7.00;;;10.10;99.90;10.10;99417.00;;;;4922019;28;95822;-65
2024/03/03 08:34:59;;;;;;;11.40;7.10;;;10.10;99.90;10.10;99405.00;;;;4921297;28;92220;-63
2024/03/03 08:37:25;;;;;;;9.10;6.20;;;10.20;99.90;10.20;99424.00;;;;4924089;28;93446;-64
2024/03/03 08:39:51;;;;;;;8.90;6.17;;;10.20;99.90;10.20;99418.00;;;;4920990;28;94163;-64
2024/03/03 08:42:16;;;;;;;8.43;5.87;;;10.30;99.90;10.30;99413.00;;;;4921347;28;94232;-64
2024/03/03 08:44:42;;;;;;;10.90;6.77;;;10.30;99.90;10.30;99417.00;;;;4920187;28;103011;-64
2024/03/03 08:47:08;;;;;;;9.73;6.27;;;10.30;99.90;10.30;99417.00;;;;4919629;28;107411;-63
2024/03/03 08:49:33;;;;;;;10.60;7.50;;;10.30;99.90;10.30;99411.00;;;;4929547;28;101491;-64
2024/03/03 08:52:01;;;;;;;10.73;6.50;;;10.40;99.90;10.40;99428.00;;;;4923622;28;121915;-63
2024/03/03 08:54:27;;;;;;;12.73;7.13;;;10.40;99.90;10.40;99423.00;;;;4923828;28;100444;-63
2024/03/03 08:56:53;;;;;;;11.53;7.33;;;10.40;99.90;10.50;99419.00;;;;4923533;28;108721;-63
2024/03/03 08:59:18;;;;;;;8.57;5.77;;;10.50;99.90;10.50;99420.00;;;;4923952;28;118526;-63
2024/03/03 09:01:44;;;;;;;7.93;5.60;;;10.50;99.90;10.60;99412.00;;;;4923212;28;121912;-62
2024/03/03 09:04:10;;;;;;;10.87;6.80;;;10.60;99.90;10.60;99409.00;;;;4923528;28;93035;-63
2024/03/03 09:06:36;;;;;;;9.20;5.77;;;10.70;99.90;10.70;99412.00;;;;4926896;28;100674;-63
2024/03/03 09:09:01;;;;;;;8.57;6.03;;;10.70;99.90;10.80;99409.00;;;;4927120;28;93393;-63
2024/03/03 09:11:27;;;;;;;11.63;7.17;;;10.80;99.90;10.90;99412.00;;;;4922674;28;123981;-63
2024/03/03 09:13:53;;;;;;;11.93;7.33;;;10.80;99.90;11.00;99411.00;;;;4927305;28;92958;-65
2024/03/03 09:16:18;;;;;;;9.37;6.27;;;11.00;99.90;11.10;99416.00;;;;4927134;28;109332;-63
2024/03/03 09:18:44;;;;;;;7.70;5.27;;;11.10;99.90;11.20;99416.00;;;;4925633;28;122329;-63
2024/03/03 09:21:10;;;;;;;11.00;5.53;;;11.20;99.90;11.30;99404.00;;;;4925960;28;93174;-64
2024/03/03 09:23:36;;;;;;;7.97;5.53;;;11.20;99.90;11.30;99407.00;;;;4925820;28;108220;-65
2024/03/03 09:26:01;;;;;;;12.27;6.23;;;11.30;99.90;11.40;99398.00;;;;4925181;28;94726;-62
2024/03/03 09:28:28;;;;;;;10.00;6.33;;;10.90;99.90;11.50;99406.00;;;;4920430;28;122050;-62
2024/03/03 09:30:54;;;;;;;10.17;6.03;;;11.50;99.90;11.60;99404.00;;;;4924152;28;121872;-63
2024/03/03 09:33:20;;;;;;;6.30;5.13;;;11.50;99.90;11.70;99403.00;;;;4923721;28;110516;-63
2024/03/03 09:35:46;;;;;;;12.73;5.53;;;11.60;99.90;11.80;99408.00;;;;4926226;28;92782;-63
2024/03/03 09:38:12;;;;;;;8.93;5.50;;;11.70;99.90;11.90;99404.00;;;;4923744;28;123012;-64
2024/03/03 09:40:38;;;;;;;11.87;5.50;;;11.90;99.90;12.00;99401.00;;;;4925415;28;93315;-63
2024/03/03 09:43:08;;;;;;;6.70;4.93;;;11.90;99.90;12.10;99392.00;;;;4926928;28;92760;-63
2024/03/03 09:45:35;;;;;;;9.00;6.73;;;11.70;99.90;12.20;99400.00;;;;4923452;28;92706;-64
2024/03/03 09:48:02;;;;;;;12.73;6.33;;;12.20;99.90;12.30;99397.00;;;;4920111;28;93627;-63
2024/03/03 09:50:28;;;;;;;7.53;4.87;;;12.40;99.90;12.40;99406.00;;;;4924010;28;115551;-65
2024/03/03 09:52:57;;;;;;;9.17;5.47;;;12.30;99.90;12.30;99401.00;;;;4925416;28;93216;-63
2024/03/03 09:55:25;;;;;;;6.87;5.63;;;12.30;99.90;12.30;99398.00;;;;4922165;28;93966;-64
2024/03/03 09:57:51;;;;;;;7.77;4.90;;;12.30;99.90;12.30;99403.00;;;;4926175;28;94168;-63
2024/03/03 10:00:17;;;;;;;8.03;5.27;;;12.30;99.90;12.30;99399.00;;;;4923189;28;94063;-63
2024/03/03 10:02:43;;;;;;;8.47;5.17;;;12.30;99.90;12.30;99394.00;;;;4925170;28;92641;-63
2024/03/03 10:05:10;;;;;;;8.17;5.13;;;12.30;99.90;12.40;99395.00;;;;4922962;28;92958;-63
2024/03/03 10:07:45;;;;;;;5.23;4.57;;;12.30;99.90;12.40;99402.00;;;;4927709;28;93734;-64
2024/03/03 10:10:16;;;;;;;9.20;5.70;;;12.40;99.90;12.50;99396.00;;;;4924054;28;113637;-62
2024/03/03 10:12:45;;;;;;;7.13;4.23;;;12.40;99.90;12.50;99401.00;;;;4925503;28;92568;-64
2024/03/03 10:15:11;;;;;;;7.40;4.50;;;12.50;99.90;12.60;99402.00;;;;4927398;28;92885;-63
2024/03/03 10:17:37;;;;;;;6.70;4.23;;;12.50;99.90;12.70;99391.00;;;;4922883;28;121919;-64
2024/03/03 10:20:08;;;;;;;7.80;4.87;;;12.70;99.90;12.70;99398.00;;;;4925162;28;106673;-64
2024/03/03 10:22:35;;;;;;;8.73;4.63;;;12.70;99.90;12.70;99398.00;;;;4923280;28;93400;-63
2024/03/03 10:25:15;;;;;;;6.83;4.30;;;12.70;99.90;12.80;99393.00;;;;4928252;28;92825;-63
2024/03/03 10:27:48;;;;;;;8.53;5.20;;;12.70;99.90;12.90;99392.00;;;;4923131;28;93918;-64
2024/03/03 10:30:17;;;;;;;5.90;4.53;;;12.80;99.90;12.90;99397.00;;;;4927076;28;93297;-64
2024/03/03 10:32:45;;;;;;;7.30;4.77;;;12.80;99.90;13.00;99396.00;;;;4924227;28;92850;-64
2024/03/03 10:35:13;;;;;;;7.80;5.07;;;12.90;99.90;13.00;99392.00;;;;4926621;28;92947;-64
2024/03/03 10:38:13;;;;;;;13.27;4.72;;;12.90;99.90;13.00;99394.00;;;;4925307;28;93144;-64
2024/03/03 10:40:42;;;;;;;7.73;5.03;;;13.00;99.90;13.10;99386.00;;;;4929527;28;92762;-63
2024/03/03 10:43:09;;;;;;;7.37;4.27;;;13.00;99.90;13.10;99389.00;;;;4924786;28;93425;-62
2024/03/03 10:45:34;;;;;;;7.33;4.60;;;13.10;99.90;13.10;99379.00;;;;4925362;28;93812;-64
2024/03/03 10:48:00;;;;;;;7.65;5.30;;;13.00;99.90;13.00;99386.00;;;;4935913;28;121792;-63
2024/03/03 10:50:26;;;;;;;8.03;4.57;;;13.00;99.90;13.10;99386.00;;;;4928204;28;121884;-63
2024/03/03 10:52:52;;;;;;;5.70;4.63;;;13.00;99.90;13.10;99381.00;;;;4929214;28;104677;-64